| Time | Avg. Air Temp | Dew Point | Avg. Rel Humidity | Avg. 2 Min Wind Speed | Max Gust Velocity | MGV Time | MGV Direction | Avg. Spot Wind Velocity |
|---|---|---|---|---|---|---|---|---|
| 2026-09-04 17:50:00 | 0° C | 0° C | 100% | 14 km/h | 20 km/h | 17:48:00 | SE | 14 km/h |
| 16:50:00 | 0° C | 0° C | 100% | 9 km/h | 15 km/h | 16:47:00 | SE | 11 km/h |
| 15:50:00 | 1° C | 1° C | 100% | 2 km/h | 7 km/h | 15:46:00 | SE | 2 km/h |
| 14:50:00 | 1° C | 1° C | 100% | 15 km/h | 19 km/h | 14:50:00 | S | 13 km/h |
| 13:50:00 | 1° C | 1° C | 100% | 9 km/h | 10 km/h | 13:49:00 | S | 9 km/h |
| 12:50:00 | 1° C | 1° C | 100% | 6 km/h | 12 km/h | 12:46:00 | E | 7 km/h |
| 11:50:00 | 1° C | 1° C | 100% | 5 km/h | 9 km/h | 11:47:00 | SE | 5 km/h |
| 10:50:00 | 2° C | 1° C | 95% | 4 km/h | 6 km/h | 10:50:00 | SE | 3 km/h |
| 09:50:00 | 1° C | 1° C | 97% | 21 km/h | 22 km/h | 09:48:00 | NE | 21 km/h |
| 08:50:00 | 1° C | 1° C | 100% | 21 km/h | 24 km/h | 08:46:00 | NE | 21 km/h |
| 07:50:00 | 0° C | 0° C | 100% | 16 km/h | 19 km/h | 07:48:00 | NE | 17 km/h |
| 06:50:00 | 0° C | 0° C | 100% | 17 km/h | 21 km/h | 06:49:00 | NE | 18 km/h |
| 05:50:00 | 1° C | -0° C | 96% | 25 km/h | 28 km/h | 05:50:00 | NE | 24 km/h |
| 04:50:00 | 0° C | 0° C | 100% | 23 km/h | 26 km/h | 04:46:00 | NE | 22 km/h |
| 03:50:00 | -0° C | 0° C | 100% | 17 km/h | 19 km/h | 03:46:00 | NE | 17 km/h |
| 02:50:00 | 0° C | -0° C | 100% | 5 km/h | 6 km/h | 02:50:00 | E | 5 km/h |
| 01:50:00 | -0° C | -0° C | 100% | 9 km/h | 10 km/h | 01:48:00 | SE | 9 km/h |
| 00:50:00 | -0° C | -0° C | 100% | 5 km/h | 6 km/h | 00:49:00 | SE | 5 km/h |
| 23:50:00 | -0° C | -0° C | 100% | 8 km/h | 9 km/h | 23:46:00 | S | 8 km/h |
| 22:50:00 | 0° C | 0° C | 100% | 15 km/h | 16 km/h | 22:49:00 | S | 13 km/h |
| 21:50:00 | 1° C | 1° C | 100% | 13 km/h | 15 km/h | 21:50:00 | SE | 13 km/h |
| 20:50:00 | 1° C | 1° C | 100% | 17 km/h | 20 km/h | 20:47:00 | S | 18 km/h |
| 19:50:00 | 1° C | 1° C | 100% | 13 km/h | 16 km/h | 19:50:00 | S | 13 km/h |
| 18:50:00 | 1° C | 1° C | 100% | 12 km/h | 19 km/h | 18:47:00 | S | 15 km/h |
Subpeak Weather
| Time | Avg. Air Temp | Dew Point | Avg. Rel Humidity | Avg. 2 Min Wind Speed | Max Gust Velocity | MGV Time | MGV Direction | Avg. Spot Wind Velocity |
|---|---|---|---|---|---|---|---|---|
| 2026-09-04 17:50:00 | 0° C | 0° C | 100% | 14 km/h | 20 km/h | 17:48:00 | SE | 14 km/h |
| 17:45:00 | 0° C | 0° C | 100% | 15 km/h | 21 km/h | 17:45:00 | SE | 15 km/h |
| 17:40:00 | 0° C | 0° C | 100% | 12 km/h | 18 km/h | 17:39:00 | SE | 11 km/h |
| 17:35:00 | -0° C | 0° C | 100% | 9 km/h | 15 km/h | 17:32:00 | SE | 11 km/h |
| 17:30:00 | 0° C | 0° C | 100% | 12 km/h | 20 km/h | 17:27:00 | SE | 12 km/h |
| 17:25:00 | 0° C | 0° C | 100% | 15 km/h | 19 km/h | 17:25:00 | SE | 14 km/h |
| 17:20:00 | 0° C | 0° C | 100% | 11 km/h | 15 km/h | 17:20:00 | S | 13 km/h |
| 17:15:00 | 1° C | 1° C | 100% | 14 km/h | 19 km/h | 17:15:00 | SE | 13 km/h |
| 17:10:00 | 0° C | 1° C | 100% | 10 km/h | 13 km/h | 17:10:00 | SE | 8 km/h |
| 17:05:00 | 1° C | 0° C | 100% | 11 km/h | 15 km/h | 17:02:00 | SE | 11 km/h |
| 17:00:00 | 0° C | 0° C | 100% | 13 km/h | 15 km/h | 16:59:00 | SE | 11 km/h |
| 16:55:00 | 0° C | 0° C | 100% | 9 km/h | 13 km/h | 16:52:00 | E | 9 km/h |
| 16:50:00 | 0° C | 0° C | 100% | 9 km/h | 15 km/h | 16:47:00 | SE | 11 km/h |




